• Join FlightAware (Why Join?)
  • Login
  • US Flag 
01:21PM EST


 

Airport Tracker/Info


-or-


 

Live Flight TrackerFlight Track Log ✈ N814GV ✈ 22-Apr-2013 ✈ PAPO / PHO - PAOT / OTZ

Flight Track Log - Related Links

Times and Time Zones

All times are in EDT time to prevent confusion due to time zone crossing. See the N814GV flight status page for this flight to view local times or setup timezone preferences in your user account.

Time Position Orientation Groundspeed Altitude Reporting Facility
EDT Latitude Longitude Course Direction KTS MPH feet Rate Location/Type
04:04PM 68.2167 -166.4833 118° Southeast 140 161 3,600  Level Anchorage Center
04:05PM 68.2000 -166.4000 118° Southeast 130 150 4,300 660 Climbing Anchorage Center
04:06PM 68.1833 -166.3167 118° Southeast 130 150 5,000 600 Climbing Anchorage Center
04:07PM 68.1500 -166.2500 143° Southeast 130 150 5,600 600 Climbing Anchorage Center
04:08PM 68.1333 -166.1833 124° Southeast 120 138 6,300 660 Climbing Anchorage Center
04:09PM 68.1000 -166.1167 143° Southeast 120 138 7,000 480 Climbing Anchorage Center
04:10PM 68.0833 -166.0333 118° Southeast 140 161 7,300 120 Climbing Anchorage Center
04:11PM 68.0500 -165.9500 137° Southeast 150 173 7,300  Level Anchorage Center
04:12PM 68.0333 -165.8667 118° Southeast 150 173 7,300 -180 Level Anchorage Center
04:13PM 68.0000 -165.7833 137° Southeast 150 173 7,000  Descending Anchorage Center
04:14PM 67.9833 -165.7000 118° Southeast 150 173 7,300  Climbing Anchorage Center
04:15PM 67.9500 -165.6167 137° Southeast 150 173 7,000 -180 Descending Anchorage Center
04:16PM 67.9167 -165.5333 137° Southeast 150 173 7,000 120 Level Anchorage Center
04:17PM 67.8833 -165.4500 137° Southeast 150 173 7,300  Climbing Anchorage Center
04:18PM 67.8667 -165.3667 118° Southeast 150 173 7,000 -180 Descending Anchorage Center
04:19PM 67.8333 -165.2833 137° Southeast 150 173 7,000 120 Level Anchorage Center
04:20PM 67.8000 -165.2000 137° Southeast 150 173 7,300 120 Climbing Anchorage Center
04:21PM 67.7833 -165.1167 118° Southeast 150 173 7,300 -180 Level Anchorage Center
04:22PM 67.7500 -165.0333 137° Southeast 160 184 7,000  Descending Anchorage Center
04:23PM 67.7167 -164.9500 137° Southeast 150 173 7,300 120 Climbing Anchorage Center
04:24PM 67.7000 -164.8667 118° Southeast 150 173 7,300  Level Anchorage Center
04:26PM 67.6592 -164.7462 132° Southeast  Level FlightAware Approximate
04:33PM 67.4354 -164.0962 132° Southeast  Level FlightAware Approximate
04:34PM 67.4033 -164.0044 132° Southeast  Level FlightAware Approximate
04:35PM 67.3710 -163.9128 132° Southeast  Level FlightAware Approximate
04:36PM 67.3387 -163.8214 133° Southeast  Level FlightAware Approximate
04:37PM 67.3064 -163.7303 133° Southeast  Level FlightAware Approximate
04:38PM 67.2740 -163.6394 133° Southeast  Level FlightAware Approximate
04:39PM 67.2415 -163.5488 133° Southeast  Level FlightAware Approximate
04:40PM 67.2091 -163.4585 133° Southeast  Level FlightAware Approximate
04:41PM 67.1752 -163.3714 136° Southeast  Level FlightAware Approximate
04:42PM 67.1434 -163.2799 131° Southeast  Level FlightAware Approximate
04:43PM 67.1116 -163.1885 139° Southeast  Level FlightAware Approximate
04:44PM 67.0757 -163.1076 139° Southeast  Level FlightAware Approximate
04:45PM 67.0412 -163.0234 130° Southeast  Level FlightAware Approximate
04:46PM 67.0101 -162.9303 130° Southeast  Level FlightAware Approximate
04:47PM 66.9770 -162.8424 136° Southeast  Level FlightAware Approximate
04:48PM 66.9429 -162.7572 136° Southeast  Level FlightAware Approximate
04:49PM 66.9111 -162.6664 130° Southeast  Level FlightAware Approximate
04:50PM 66.8833 -162.5833 130° Southeast  Level FlightAware Approximate
04:51PM 66.8847 -162.5985 130° Southeast  Level Estimated
04:52PM 66.8833 -162.5833 130° Southeast  Level FlightAware Approximate
04:53PM 66.8847 -162.5985 130° Southeast  Level Estimated
04:54PM 66.8833 -162.5833 130° Southeast  Level FlightAware Approximate
04:55PM 66.8847 -162.5985 130° Southeast  Level Estimated
04:56PM 66.8833 -162.5833 130° Southeast  Level FlightAware Approximate
04:57PM 66.8847 -162.5985 130° Southeast  Level Estimated
04:58PM 66.8833 -162.5833 130° Southeast  Level FlightAware Approximate
04:59PM 66.8847 -162.5985 130° Southeast  Level Estimated
05:00PM 66.8833 -162.5833 130° Southeast  Level FlightAware Approximate
05:01PM 66.8847 -162.5985 130° Southeast  Level Estimated
05:02PM 66.8833 -162.5833 130° Southeast  Level FlightAware Approximate
05:03PM 66.8847 -162.5985 130° Southeast  Level Estimated
05:04PM 66.8833 -162.5833 130° Southeast  Level FlightAware Approximate
05:05PM 66.8847 -162.5985 130° Southeast  Level Estimated